Time,TemperatureF,DewpointF,PressureIn,WindDirection,WindDirectionDegrees,WindSpeedMPH,WindSpeedGustMPH,Humidity,HourlyPrecipIn,Conditions,Clouds,dailyrainin,SoftwareType,DateUTC
2013-08-03 00:04:00,75.7,74.0,30.09,SSW,208,1.0,9.0,95,0.00,,,0.00,weatherlink.com 1.10,2013-08-03 04:04:00,
2013-08-03 00:18:00,76.6,74.0,30.10,SSW,208,4.0,6.0,92,0.00,,,0.00,weatherlink.com 1.10,2013-08-03 04:18:00,
2013-08-03 00:33:00,77.2,75.0,30.10,SSW,208,0.0,3.0,91,0.00,,,0.00,weatherlink.com 1.10,2013-08-03 04:33:00,
2013-08-03 00:48:00,77.1,74.0,30.10,SSW,208,2.0,4.0,90,0.00,,,0.00,weatherlink.com 1.10,2013-08-03 04:48:00,
2013-08-03 01:04:00,77.1,74.0,30.11,SSW,208,0.0,3.0,91,0.00,,,0.00,weatherlink.com 1.10,2013-08-03 05:04:00,
2013-08-03 01:18:00,77.0,74.0,30.11,SSW,209,0.0,1.0,91,0.00,,,0.00,weatherlink.com 1.10,2013-08-03 05:18:00,
2013-08-03 01:34:00,77.2,75.0,30.11,SSW,208,0.0,0.0,91,0.00,,,0.00,weatherlink.com 1.10,2013-08-03 05:34:00,
2013-08-03 01:48:00,77.2,75.0,30.10,SSW,208,0.0,2.0,92,0.00,,,0.00,weatherlink.com 1.10,2013-08-03 05:48:00,
2013-08-03 02:03:00,77.2,75.0,30.10,SSW,208,0.0,0.0,92,0.00,,,0.00,weatherlink.com 1.10,2013-08-03 06:03:00,
2013-08-03 02:19:00,77.2,75.0,30.10,SSW,208,0.0,0.0,92,0.00,,,0.00,weatherlink.com 1.10,2013-08-03 06:19:00,
2013-08-03 02:33:00,77.3,75.0,30.10,SSW,208,0.0,0.0,92,0.00,,,0.00,weatherlink.com 1.10,2013-08-03 06:33:00,
2013-08-03 02:49:00,77.6,75.0,30.10,SSW,208,0.0,0.0,92,0.00,,,0.00,weatherlink.com 1.10,2013-08-03 06:49:00,
2013-08-03 03:04:00,77.7,75.0,30.09,SSW,208,0.0,2.0,92,0.00,,,0.00,weatherlink.com 1.10,2013-08-03 07:04:00,
2013-08-03 03:19:00,77.9,76.0,30.09,SSW,208,0.0,0.0,92,0.00,,,0.00,weatherlink.com 1.10,2013-08-03 07:19:00,
2013-08-03 03:34:00,77.7,75.0,30.08,SSW,208,0.0,0.0,92,0.00,,,0.00,weatherlink.com 1.10,2013-08-03 07:34:00,
2013-08-03 03:50:00,77.9,76.0,30.08,SSW,208,0.0,2.0,92,0.00,,,0.00,weatherlink.com 1.10,2013-08-03 07:50:00,
2013-08-03 04:05:00,77.8,75.0,30.09,SSW,208,0.0,0.0,92,0.00,,,0.00,weatherlink.com 1.10,2013-08-03 08:05:00,
2013-08-03 04:19:00,77.9,76.0,30.08,SSW,208,0.0,0.0,92,0.00,,,0.00,weatherlink.com 1.10,2013-08-03 08:19:00,
2013-08-03 04:35:00,77.7,75.0,30.09,SSW,208,0.0,0.0,91,0.00,,,0.00,weatherlink.com 1.10,2013-08-03 08:35:00,
2013-08-03 04:49:00,77.4,75.0,30.09,SSW,209,0.0,0.0,92,0.00,,,0.00,weatherlink.com 1.10,2013-08-03 08:49:00,
2013-08-03 05:04:00,77.4,75.0,30.09,SSW,208,0.0,0.0,93,0.00,,,0.00,weatherlink.com 1.10,2013-08-03 09:04:00,
2013-08-03 05:20:00,77.4,75.0,30.09,SSW,208,0.0,0.0,93,0.00,,,0.00,weatherlink.com 1.10,2013-08-03 09:20:00,
2013-08-03 05:35:00,77.8,75.0,30.09,SSW,208,0.0,0.0,92,0.00,,,0.00,weatherlink.com 1.10,2013-08-03 09:35:00,
2013-08-03 05:49:00,77.8,75.0,30.09,SSW,209,0.0,0.0,92,0.00,,,0.00,weatherlink.com 1.10,2013-08-03 09:49:00,
2013-08-03 06:05:00,77.8,76.0,30.09,SSW,208,0.0,0.0,93,0.00,,,0.00,weatherlink.com 1.10,2013-08-03 10:05:00,
2013-08-03 06:20:00,77.8,75.0,30.11,SSW,208,0.0,0.0,92,0.00,,,0.00,weatherlink.com 1.10,2013-08-03 10:20:00,
2013-08-03 06:35:00,78.0,76.0,30.11,SSW,208,0.0,0.0,93,0.00,,,0.00,weatherlink.com 1.10,2013-08-03 10:35:00,
2013-08-03 06:50:00,78.1,76.0,30.12,SSW,208,0.0,0.0,93,0.00,,,0.00,weatherlink.com 1.10,2013-08-03 10:50:00,
2013-08-03 07:04:00,78.4,76.0,30.12,SSW,208,2.0,4.0,93,0.00,,,0.00,weatherlink.com 1.10,2013-08-03 11:04:00,
2013-08-03 07:20:00,79.2,77.0,30.13,SSW,208,5.0,6.0,92,0.00,,,0.00,weatherlink.com 1.10,2013-08-03 11:20:00,
2013-08-03 07:50:00,79.8,77.0,30.13,SSW,208,2.0,6.0,90,0.00,,,0.00,weatherlink.com 1.10,2013-08-03 11:50:00,
2013-08-03 08:05:00,79.9,77.0,30.13,SSW,208,1.0,4.0,90,0.00,,,0.00,weatherlink.com 1.10,2013-08-03 12:05:00,
2013-08-03 08:27:00,80.3,77.0,30.14,SSW,208,2.0,4.0,88,0.00,,,0.00,weatherlink.com 1.10,2013-08-03 12:27:00,
2013-08-03 08:35:00,80.5,77.0,30.14,SSW,208,2.0,5.0,88,0.00,,,0.00,weatherlink.com 1.10,2013-08-03 12:35:00,
2013-08-03 08:51:00,80.8,77.0,30.15,SSW,209,3.0,4.0,88,0.00,,,0.00,weatherlink.com 1.10,2013-08-03 12:51:00,
2013-08-03 09:07:00,81.1,77.0,30.15,SSW,208,3.0,7.0,87,0.00,,,0.00,weatherlink.com 1.10,2013-08-03 13:07:00,
2013-08-03 09:21:00,80.5,75.0,30.15,ESE,122,6.0,11.0,83,0.00,,,0.00,weatherlink.com 1.10,2013-08-03 13:21:00,
2013-08-03 09:37:00,80.0,75.0,30.15,SE,146,5.0,7.0,84,0.00,,,0.00,weatherlink.com 1.10,2013-08-03 13:37:00,
2013-08-03 09:50:00,79.8,75.0,30.15,SSE,148,2.0,7.0,84,0.00,,,0.00,weatherlink.com 1.10,2013-08-03 13:50:00,
2013-08-03 10:07:00,79.7,74.0,30.16,South,191,3.0,7.0,83,0.00,,,0.00,weatherlink.com 1.10,2013-08-03 14:07:00,
2013-08-03 10:21:00,79.8,73.0,30.16,SSW,208,5.0,8.0,80,0.00,,,0.00,weatherlink.com 1.10,2013-08-03 14:21:00,
2013-08-03 10:36:00,79.8,73.0,30.16,SSW,208,2.0,7.0,80,0.00,,,0.00,weatherlink.com 1.10,2013-08-03 14:36:00,
2013-08-03 10:51:00,79.7,74.0,30.16,SSW,208,1.0,5.0,83,0.00,,,0.00,weatherlink.com 1.10,2013-08-03 14:51:00,
2013-08-03 11:07:00,79.7,75.0,30.17,SSW,208,2.0,3.0,85,0.00,,,0.00,weatherlink.com 1.10,2013-08-03 15:07:00,
2013-08-03 11:22:00,79.8,75.0,30.17,SSW,208,0.0,1.0,86,0.00,,,0.00,weatherlink.com 1.10,2013-08-03 15:22:00,
2013-08-03 11:36:00,80.1,76.0,30.17,SSW,208,2.0,4.0,87,0.00,,,0.00,weatherlink.com 1.10,2013-08-03 15:36:00,
2013-08-03 11:53:00,80.6,77.0,30.16,SSW,208,2.0,3.0,89,0.00,,,0.00,weatherlink.com 1.10,2013-08-03 15:53:00,
2013-08-03 12:08:00,81.0,78.0,30.16,SSW,208,3.0,4.0,89,0.00,,,0.00,weatherlink.com 1.10,2013-08-03 16:08:00,
2013-08-03 12:22:00,81.4,78.0,30.17,SSW,208,0.0,4.0,88,0.00,,,0.00,weatherlink.com 1.10,2013-08-03 16:22:00,
2013-08-03 12:38:00,81.5,78.0,30.17,SSW,208,1.0,3.0,88,0.00,,,0.00,weatherlink.com 1.10,2013-08-03 16:38:00,
2013-08-03 12:52:00,81.7,78.0,30.17,SSW,208,1.0,4.0,89,0.00,,,0.00,weatherlink.com 1.10,2013-08-03 16:52:00,
2013-08-03 13:08:00,81.7,79.0,30.17,SSW,208,4.0,5.0,90,0.01,,,0.01,weatherlink.com 1.10,2013-08-03 17:08:00,
2013-08-03 13:22:00,81.9,79.0,30.17,SSW,208,2.0,4.0,90,0.01,,,0.01,weatherlink.com 1.10,2013-08-03 17:22:00,
2013-08-03 13:38:00,82.2,79.0,30.17,SSW,209,3.0,5.0,89,0.01,,,0.01,weatherlink.com 1.10,2013-08-03 17:38:00,
2013-08-03 13:52:00,82.4,78.0,30.16,SSW,208,2.0,5.0,87,0.01,,,0.01,weatherlink.com 1.10,2013-08-03 17:52:00,
2013-08-03 14:08:00,82.9,78.0,30.15,SSW,209,1.0,3.0,85,0.00,,,0.01,weatherlink.com 1.10,2013-08-03 18:08:00,
2013-08-03 14:23:00,83.1,77.0,30.15,SSW,209,3.0,5.0,82,0.00,,,0.01,weatherlink.com 1.10,2013-08-03 18:23:00,
2013-08-03 14:37:00,83.8,78.0,30.15,SSW,209,3.0,4.0,82,0.00,,,0.01,weatherlink.com 1.10,2013-08-03 18:37:00,
2013-08-03 14:53:00,84.3,78.0,30.15,SSW,210,1.0,3.0,82,0.00,,,0.01,weatherlink.com 1.10,2013-08-03 18:53:00,
2013-08-03 15:09:00,84.4,78.0,30.15,SW,228,2.0,4.0,81,0.00,,,0.01,weatherlink.com 1.10,2013-08-03 19:09:00,
2013-08-03 15:23:00,84.5,79.0,30.15,SSW,208,2.0,5.0,82,0.00,,,0.01,weatherlink.com 1.10,2013-08-03 19:23:00,
2013-08-03 15:38:00,78.5,72.0,30.16,SSE,156,7.0,17.0,79,0.00,,,0.01,weatherlink.com 1.10,2013-08-03 19:38:00,
2013-08-03 15:53:00,77.5,71.0,30.15,SSE,158,6.0,15.0,79,0.00,,,0.01,weatherlink.com 1.10,2013-08-03 19:53:00,
2013-08-03 16:08:00,76.8,71.0,30.15,SSW,204,5.0,11.0,83,0.00,,,0.01,weatherlink.com 1.10,2013-08-03 20:08:00,
2013-08-03 16:23:00,75.8,72.0,30.14,SSW,204,3.0,5.0,87,0.01,,,0.02,weatherlink.com 1.10,2013-08-03 20:23:00,
2013-08-03 16:38:00,75.4,72.0,30.14,SSW,204,3.0,10.0,88,0.01,,,0.02,weatherlink.com 1.10,2013-08-03 20:38:00,
2013-08-03 16:53:00,75.3,72.0,30.15,SSW,204,3.0,7.0,89,0.01,,,0.02,weatherlink.com 1.10,2013-08-03 20:53:00,
2013-08-03 17:08:00,75.5,71.0,30.15,SSE,150,2.0,6.0,87,0.01,,,0.02,weatherlink.com 1.10,2013-08-03 21:08:00,
2013-08-03 17:24:00,75.7,72.0,30.15,SSW,204,3.0,5.0,88,0.00,,,0.02,weatherlink.com 1.10,2013-08-03 21:24:00,
2013-08-03 17:38:00,75.7,72.0,30.15,SSW,204,1.0,3.0,89,0.01,,,0.03,weatherlink.com 1.10,2013-08-03 21:38:00,
2013-08-03 17:54:00,75.6,72.0,30.15,SSW,204,1.0,6.0,89,0.01,,,0.03,weatherlink.com 1.10,2013-08-03 21:54:00,
2013-08-03 18:08:00,75.6,73.0,30.15,SSW,204,4.0,7.0,90,0.01,,,0.03,weatherlink.com 1.10,2013-08-03 22:08:00,
2013-08-03 18:24:00,75.5,73.0,30.14,SSW,204,3.0,6.0,90,0.01,,,0.03,weatherlink.com 1.10,2013-08-03 22:24:00,
2013-08-03 18:39:00,75.6,73.0,30.14,SSW,204,3.0,6.0,90,0.00,,,0.03,weatherlink.com 1.10,2013-08-03 22:39:00,
2013-08-03 18:54:00,75.7,73.0,30.14,SSW,204,0.0,4.0,90,0.00,,,0.03,weatherlink.com 1.10,2013-08-03 22:54:00,
2013-08-03 19:09:00,75.8,73.0,30.14,SSW,204,5.0,5.0,91,0.00,,,0.03,weatherlink.com 1.10,2013-08-03 23:09:00,
2013-08-03 19:24:00,75.7,73.0,30.14,SSW,205,3.0,5.0,92,0.00,,,0.03,weatherlink.com 1.10,2013-08-03 23:24:00,
2013-08-03 19:39:00,75.6,74.0,30.14,SSW,204,3.0,3.0,93,0.00,,,0.03,weatherlink.com 1.10,2013-08-03 23:39:00,
2013-08-03 19:53:00,75.5,73.0,30.14,SSW,204,2.0,5.0,93,0.00,,,0.03,weatherlink.com 1.10,2013-08-03 23:53:00,
2013-08-03 20:09:00,75.6,73.0,30.14,SSW,204,0.0,5.0,92,0.00,,,0.03,weatherlink.com 1.10,2013-08-04 00:09:00,
2013-08-03 20:24:00,75.7,74.0,30.14,SSW,204,0.0,2.0,93,0.00,,,0.03,weatherlink.com 1.10,2013-08-04 00:24:00,
2013-08-03 20:39:00,75.6,74.0,30.14,SSW,204,0.0,0.0,93,0.00,,,0.03,weatherlink.com 1.10,2013-08-04 00:39:00,
2013-08-03 20:55:00,75.6,74.0,30.15,SSW,204,0.0,0.0,94,0.00,,,0.03,weatherlink.com 1.10,2013-08-04 00:55:00,
2013-08-03 21:09:00,75.6,74.0,30.15,SSW,204,0.0,0.0,94,0.00,,,0.03,weatherlink.com 1.10,2013-08-04 01:09:00,
2013-08-03 21:25:00,75.5,74.0,30.15,SSW,204,0.0,0.0,94,0.00,,,0.03,weatherlink.com 1.10,2013-08-04 01:25:00,
2013-08-03 21:39:00,75.4,74.0,30.15,SSW,204,0.0,0.0,94,0.00,,,0.03,weatherlink.com 1.10,2013-08-04 01:39:00,
2013-08-03 21:55:00,75.4,74.0,30.15,SE,134,0.0,4.0,94,0.00,,,0.03,weatherlink.com 1.10,2013-08-04 01:55:00,
2013-08-03 22:09:00,75.5,74.0,30.17,SSE,158,0.0,0.0,94,0.00,,,0.03,weatherlink.com 1.10,2013-08-04 02:09:00,
2013-08-03 22:25:00,75.9,74.0,30.18,SSW,204,0.0,0.0,93,0.00,,,0.03,weatherlink.com 1.10,2013-08-04 02:25:00,
2013-08-03 22:39:00,75.8,74.0,30.18,SSW,204,0.0,0.0,93,0.00,,,0.03,weatherlink.com 1.10,2013-08-04 02:39:00,
2013-08-03 22:55:00,75.7,74.0,30.18,SSW,203,0.0,0.0,94,0.00,,,0.03,weatherlink.com 1.10,2013-08-04 02:55:00,
2013-08-03 23:11:00,75.5,74.0,30.18,SSW,204,0.0,0.0,94,0.00,,,0.03,weatherlink.com 1.10,2013-08-04 03:11:00,
2013-08-03 23:25:00,75.5,74.0,30.18,SSW,204,0.0,0.0,94,0.00,,,0.03,weatherlink.com 1.10,2013-08-04 03:25:00,
2013-08-03 23:40:00,75.5,74.0,30.17,SSW,203,0.0,0.0,95,0.00,,,0.03,weatherlink.com 1.10,2013-08-04 03:40:00,
2013-08-03 23:55:00,75.7,74.0,30.17,SSW,204,0.0,0.0,94,0.00,,,0.03,weatherlink.com 1.10,2013-08-04 03:55:00,